Camano Island, WA

1:31 AM PST on January 28, 2015 (GMT -0800)
Indian Beach | Change Station
CLOSE
Current Station
Personal Weather Station
Location: Camano Island, WA
Elevation: 135 ft
Nearby Weather Stations

Elev 135 ft 48.17 °N, 122.52 °W | Updated 1 second ago

Overcast
Overcast
46.2 °F
Feels Like 46 °F
N
0.0
Wind Variable Wind from WNW
Gusts 2.0 mph

Today
High -- | Low -- °F
--% Chance of Precip.
Yesterday
High -- | Low -- °F
Precip. -- in
7:43 AM 5:03 PM
Waxing Gibbous, 63% visible
Pressure 30.31 in
Visibility 10.0 miles
Clouds Mostly Cloudy 2700 ft
Mostly Cloudy 3500 ft
Mostly Cloudy 5000 ft
Windchill 46 °F
Dew Point 42 °F
Humidity 85%
Rainfall 0.00 in
Snow Depth Not available.
UV 0 out of 12
Pollen 3.30 out of 12
Air Quality Not available.
Flu Activity Not available.
METAR KNUW 280856Z 23005KT 10SM BKN027 BKN035 BKN050 09/05 A3030 RMK AO2 SLP264 T00890050 51019 VISNO E $

More Conditions Fewer Conditions

Pressure 30.31 in
Visibility 10.0 miles
Clouds Mostly Cloudy 2700 ft
Mostly Cloudy 3500 ft
Mostly Cloudy 5000 ft
Windchill 46 °F
Dew Point 42 °F
Humidity 85%
Rainfall 0.00 in
Snow Depth Not available.
UV 0 out of 12
Pollen 3.30 out of 12
Air Quality Not available.
Flu Activity Not available.
METAR KNUW 280856Z 23005KT 10SM BKN027 BKN035 BKN050 09/05 A3030 RMK AO2 SLP264 T00890050 51019 VISNO E $

More Conditions Fewer Conditions

10-Day Weather Forecast

Almanac

Astronomy

Jan. 28, 2015 Rise Set
Actual Time
Civil Twilight
Nautical Twilight
Astronomical Twilight
Moon
Length of Visible Light
Length of Day
Tomorrow will be .
, % of the Moon is Illuminated

Today's Extremes

State Highs State Lows

Community

WunderPhotos

Upload Photos

1,791,120 photos uploaded!

WunderBlogs® & News

Nearby

Air Quality

  Air Quality AQ Index Pollutant
Not available.

Snow Depth

Station Depth Elevation

Earthquake Activity

City Distance Mag. Time & Date
Minimum magnitude displayed is 2.5.

Coastal Water Temperatures

Place Temperature

Nearby Weather Stations